sensor_id;sensor_type;location;lat;lon;timestamp;P1;durP1;ratioP1;P2;durP2;ratioP2
5465;SDS011;2755;50.728;7.108;2023-10-31T00:02:25;150.73;;;88.47;;
5465;SDS011;2755;50.728;7.108;2023-10-31T00:04:51;149.50;;;85.17;;
5465;SDS011;2755;50.728;7.108;2023-10-31T00:07:16;148.87;;;83.37;;
5465;SDS011;2755;50.728;7.108;2023-10-31T00:09:42;150.87;;;88.20;;
5465;SDS011;2755;50.728;7.108;2023-10-31T00:12:07;146.67;;;82.07;;
5465;SDS011;2755;50.728;7.108;2023-10-31T00:14:33;148.90;;;84.60;;
5465;SDS011;2755;50.728;7.108;2023-10-31T00:16:58;147.37;;;82.53;;
5465;SDS011;2755;50.728;7.108;2023-10-31T00:19:24;148.57;;;84.47;;
5465;SDS011;2755;50.728;7.108;2023-10-31T00:21:49;152.97;;;88.80;;
5465;SDS011;2755;50.728;7.108;2023-10-31T00:24:15;148.17;;;84.23;;
5465;SDS011;2755;50.728;7.108;2023-10-31T00:26:41;148.40;;;86.07;;
5465;SDS011;2755;50.728;7.108;2023-10-31T00:29:06;145.20;;;77.37;;
5465;SDS011;2755;50.728;7.108;2023-10-31T00:31:32;145.97;;;79.07;;
5465;SDS011;2755;50.728;7.108;2023-10-31T00:33:59;147.00;;;82.90;;
5465;SDS011;2755;50.728;7.108;2023-10-31T00:36:26;145.40;;;79.87;;
5465;SDS011;2755;50.728;7.108;2023-10-31T00:38:52;143.33;;;77.23;;
5465;SDS011;2755;50.728;7.108;2023-10-31T00:41:17;141.47;;;74.47;;
5465;SDS011;2755;50.728;7.108;2023-10-31T00:43:43;141.30;;;72.67;;
5465;SDS011;2755;50.728;7.108;2023-10-31T00:46:08;142.87;;;76.30;;
5465;SDS011;2755;50.728;7.108;2023-10-31T00:48:34;140.10;;;71.27;;
5465;SDS011;2755;50.728;7.108;2023-10-31T00:51:02;140.57;;;71.60;;
5465;SDS011;2755;50.728;7.108;2023-10-31T00:53:28;141.47;;;71.47;;
5465;SDS011;2755;50.728;7.108;2023-10-31T00:55:54;140.53;;;71.77;;
5465;SDS011;2755;50.728;7.108;2023-10-31T00:58:20;140.63;;;72.63;;
5465;SDS011;2755;50.728;7.108;2023-10-31T01:00:46;141.37;;;73.20;;
5465;SDS011;2755;50.728;7.108;2023-10-31T01:03:11;142.40;;;76.03;;
5465;SDS011;2755;50.728;7.108;2023-10-31T01:05:37;142.37;;;75.57;;
5465;SDS011;2755;50.728;7.108;2023-10-31T01:08:03;141.50;;;73.77;;
5465;SDS011;2755;50.728;7.108;2023-10-31T01:10:29;140.87;;;72.40;;
5465;SDS011;2755;50.728;7.108;2023-10-31T01:12:54;141.30;;;73.47;;
5465;SDS011;2755;50.728;7.108;2023-10-31T01:15:20;137.73;;;68.17;;
5465;SDS011;2755;50.728;7.108;2023-10-31T01:17:46;141.77;;;75.00;;
5465;SDS011;2755;50.728;7.108;2023-10-31T01:20:12;140.53;;;72.47;;
5465;SDS011;2755;50.728;7.108;2023-10-31T01:22:37;137.73;;;67.77;;
5465;SDS011;2755;50.728;7.108;2023-10-31T01:25:03;140.40;;;71.90;;
5465;SDS011;2755;50.728;7.108;2023-10-31T01:27:29;140.87;;;75.17;;
5465;SDS011;2755;50.728;7.108;2023-10-31T01:29:54;142.37;;;74.37;;
5465;SDS011;2755;50.728;7.108;2023-10-31T01:32:20;140.63;;;72.37;;
5465;SDS011;2755;50.728;7.108;2023-10-31T01:34:46;139.90;;;71.40;;
5465;SDS011;2755;50.728;7.108;2023-10-31T01:37:12;140.03;;;69.97;;
5465;SDS011;2755;50.728;7.108;2023-10-31T01:39:39;135.77;;;63.70;;
5465;SDS011;2755;50.728;7.108;2023-10-31T01:42:05;141.93;;;73.67;;
5465;SDS011;2755;50.728;7.108;2023-10-31T01:44:31;140.77;;;70.83;;
5465;SDS011;2755;50.728;7.108;2023-10-31T01:46:56;142.60;;;75.63;;
5465;SDS011;2755;50.728;7.108;2023-10-31T01:49:22;145.70;;;76.37;;
5465;SDS011;2755;50.728;7.108;2023-10-31T01:51:47;146.37;;;80.97;;
5465;SDS011;2755;50.728;7.108;2023-10-31T01:54:14;148.13;;;87.70;;
5465;SDS011;2755;50.728;7.108;2023-10-31T01:56:41;151.83;;;91.90;;
5465;SDS011;2755;50.728;7.108;2023-10-31T01:59:08;150.03;;;86.97;;
5465;SDS011;2755;50.728;7.108;2023-10-31T02:01:38;152.37;;;92.60;;
5465;SDS011;2755;50.728;7.108;2023-10-31T02:04:07;149.17;;;86.40;;
5465;SDS011;2755;50.728;7.108;2023-10-31T02:06:32;151.07;;;87.80;;
5465;SDS011;2755;50.728;7.108;2023-10-31T02:08:58;150.07;;;89.20;;
5465;SDS011;2755;50.728;7.108;2023-10-31T02:11:23;149.70;;;84.50;;
5465;SDS011;2755;50.728;7.108;2023-10-31T02:13:49;148.83;;;85.77;;
5465;SDS011;2755;50.728;7.108;2023-10-31T02:16:22;147.57;;;81.37;;
5465;SDS011;2755;50.728;7.108;2023-10-31T02:18:48;147.70;;;82.73;;
5465;SDS011;2755;50.728;7.108;2023-10-31T02:21:14;143.97;;;75.67;;
5465;SDS011;2755;50.728;7.108;2023-10-31T02:23:41;144.33;;;76.23;;
5465;SDS011;2755;50.728;7.108;2023-10-31T02:26:07;143.37;;;76.07;;
5465;SDS011;2755;50.728;7.108;2023-10-31T02:28:33;144.50;;;74.50;;
5465;SDS011;2755;50.728;7.108;2023-10-31T02:30:58;143.17;;;73.90;;
5465;SDS011;2755;50.728;7.108;2023-10-31T02:33:24;146.27;;;77.97;;
5465;SDS011;2755;50.728;7.108;2023-10-31T02:35:50;143.17;;;72.37;;
5465;SDS011;2755;50.728;7.108;2023-10-31T02:38:15;143.53;;;74.80;;
5465;SDS011;2755;50.728;7.108;2023-10-31T02:40:41;146.27;;;79.67;;
5465;SDS011;2755;50.728;7.108;2023-10-31T02:43:07;141.57;;;70.83;;
5465;SDS011;2755;50.728;7.108;2023-10-31T02:45:32;142.97;;;72.37;;
5465;SDS011;2755;50.728;7.108;2023-10-31T02:47:58;144.97;;;78.30;;
5465;SDS011;2755;50.728;7.108;2023-10-31T02:50:23;143.90;;;76.23;;
5465;SDS011;2755;50.728;7.108;2023-10-31T02:52:49;144.97;;;75.40;;
5465;SDS011;2755;50.728;7.108;2023-10-31T02:55:14;145.37;;;75.67;;
5465;SDS011;2755;50.728;7.108;2023-10-31T02:57:40;147.40;;;78.60;;
5465;SDS011;2755;50.728;7.108;2023-10-31T03:00:06;144.07;;;74.37;;
5465;SDS011;2755;50.728;7.108;2023-10-31T03:02:32;145.37;;;75.60;;
5465;SDS011;2755;50.728;7.108;2023-10-31T03:04:58;151.30;;;86.43;;
5465;SDS011;2755;50.728;7.108;2023-10-31T03:07:24;149.23;;;82.17;;
5465;SDS011;2755;50.728;7.108;2023-10-31T03:09:50;147.07;;;77.93;;
5465;SDS011;2755;50.728;7.108;2023-10-31T03:12:16;149.63;;;84.90;;
5465;SDS011;2755;50.728;7.108;2023-10-31T03:14:42;147.37;;;79.30;;
5465;SDS011;2755;50.728;7.108;2023-10-31T03:17:07;148.30;;;83.63;;
5465;SDS011;2755;50.728;7.108;2023-10-31T03:19:33;147.87;;;81.53;;
5465;SDS011;2755;50.728;7.108;2023-10-31T03:21:58;147.73;;;79.93;;
5465;SDS011;2755;50.728;7.108;2023-10-31T03:24:24;145.97;;;78.00;;
5465;SDS011;2755;50.728;7.108;2023-10-31T03:26:49;142.87;;;73.60;;
5465;SDS011;2755;50.728;7.108;2023-10-31T03:29:15;144.47;;;73.30;;
5465;SDS011;2755;50.728;7.108;2023-10-31T03:31:41;146.53;;;80.67;;
5465;SDS011;2755;50.728;7.108;2023-10-31T03:34:06;144.10;;;73.37;;
5465;SDS011;2755;50.728;7.108;2023-10-31T03:36:32;147.07;;;79.90;;
5465;SDS011;2755;50.728;7.108;2023-10-31T03:38:57;143.27;;;73.07;;
5465;SDS011;2755;50.728;7.108;2023-10-31T03:41:23;142.63;;;72.50;;
5465;SDS011;2755;50.728;7.108;2023-10-31T03:43:48;144.77;;;78.27;;
5465;SDS011;2755;50.728;7.108;2023-10-31T03:46:14;142.67;;;73.30;;
5465;SDS011;2755;50.728;7.108;2023-10-31T03:48:41;143.07;;;73.20;;
5465;SDS011;2755;50.728;7.108;2023-10-31T03:51:06;144.37;;;76.77;;
5465;SDS011;2755;50.728;7.108;2023-10-31T03:53:32;141.43;;;72.90;;
5465;SDS011;2755;50.728;7.108;2023-10-31T03:56:00;143.63;;;75.50;;
5465;SDS011;2755;50.728;7.108;2023-10-31T03:58:26;144.53;;;78.70;;
5465;SDS011;2755;50.728;7.108;2023-10-31T04:00:52;145.13;;;78.37;;
5465;SDS011;2755;50.728;7.108;2023-10-31T04:03:17;145.00;;;79.10;;
5465;SDS011;2755;50.728;7.108;2023-10-31T04:05:43;143.97;;;78.27;;
5465;SDS011;2755;50.728;7.108;2023-10-31T04:08:09;142.23;;;73.77;;
5465;SDS011;2755;50.728;7.108;2023-10-31T04:10:35;141.57;;;72.43;;
5465;SDS011;2755;50.728;7.108;2023-10-31T04:13:00;145.93;;;80.83;;
5465;SDS011;2755;50.728;7.108;2023-10-31T04:15:26;144.37;;;76.33;;
5465;SDS011;2755;50.728;7.108;2023-10-31T04:17:51;143.07;;;76.00;;
5465;SDS011;2755;50.728;7.108;2023-10-31T04:20:17;145.73;;;79.60;;
5465;SDS011;2755;50.728;7.108;2023-10-31T04:22:43;145.37;;;79.67;;
5465;SDS011;2755;50.728;7.108;2023-10-31T04:25:09;146.17;;;81.07;;
5465;SDS011;2755;50.728;7.108;2023-10-31T04:27:34;144.83;;;79.83;;
5465;SDS011;2755;50.728;7.108;2023-10-31T04:30:01;147.57;;;83.20;;
5465;SDS011;2755;50.728;7.108;2023-10-31T04:32:26;146.53;;;80.37;;
5465;SDS011;2755;50.728;7.108;2023-10-31T04:34:52;147.67;;;82.07;;
5465;SDS011;2755;50.728;7.108;2023-10-31T04:37:18;150.80;;;89.90;;
5465;SDS011;2755;50.728;7.108;2023-10-31T04:39:43;145.97;;;82.60;;
5465;SDS011;2755;50.728;7.108;2023-10-31T04:42:09;150.33;;;89.23;;
5465;SDS011;2755;50.728;7.108;2023-10-31T04:44:34;147.20;;;82.83;;
5465;SDS011;2755;50.728;7.108;2023-10-31T04:47:00;145.63;;;80.00;;
5465;SDS011;2755;50.728;7.108;2023-10-31T04:49:25;145.73;;;80.13;;
5465;SDS011;2755;50.728;7.108;2023-10-31T04:51:51;147.20;;;82.97;;
5465;SDS011;2755;50.728;7.108;2023-10-31T04:54:17;148.77;;;85.43;;
5465;SDS011;2755;50.728;7.108;2023-10-31T04:56:43;146.67;;;83.43;;
5465;SDS011;2755;50.728;7.108;2023-10-31T04:59:09;148.80;;;84.17;;
5465;SDS011;2755;50.728;7.108;2023-10-31T05:01:34;149.17;;;87.63;;
5465;SDS011;2755;50.728;7.108;2023-10-31T05:04:00;145.20;;;80.53;;
5465;SDS011;2755;50.728;7.108;2023-10-31T05:06:28;145.77;;;80.27;;
5465;SDS011;2755;50.728;7.108;2023-10-31T05:08:53;146.83;;;81.80;;
5465;SDS011;2755;50.728;7.108;2023-10-31T05:11:19;146.70;;;82.37;;
5465;SDS011;2755;50.728;7.108;2023-10-31T05:13:45;146.60;;;82.67;;
5465;SDS011;2755;50.728;7.108;2023-10-31T05:16:11;146.67;;;82.57;;
5465;SDS011;2755;50.728;7.108;2023-10-31T05:18:37;147.87;;;86.27;;
5465;SDS011;2755;50.728;7.108;2023-10-31T05:21:03;145.17;;;80.37;;
5465;SDS011;2755;50.728;7.108;2023-10-31T05:23:29;143.70;;;77.53;;
5465;SDS011;2755;50.728;7.108;2023-10-31T05:25:55;146.47;;;81.83;;
5465;SDS011;2755;50.728;7.108;2023-10-31T05:28:21;144.90;;;81.27;;
5465;SDS011;2755;50.728;7.108;2023-10-31T05:30:46;141.73;;;74.97;;
5465;SDS011;2755;50.728;7.108;2023-10-31T05:33:14;144.57;;;79.00;;
5465;SDS011;2755;50.728;7.108;2023-10-31T05:35:40;144.57;;;78.97;;
5465;SDS011;2755;50.728;7.108;2023-10-31T05:38:06;143.77;;;77.10;;
5465;SDS011;2755;50.728;7.108;2023-10-31T05:40:31;140.97;;;72.63;;
5465;SDS011;2755;50.728;7.108;2023-10-31T05:43:00;142.27;;;75.40;;
5465;SDS011;2755;50.728;7.108;2023-10-31T05:45:26;140.87;;;72.17;;
5465;SDS011;2755;50.728;7.108;2023-10-31T05:47:51;145.07;;;80.00;;
5465;SDS011;2755;50.728;7.108;2023-10-31T05:50:17;146.27;;;82.83;;
5465;SDS011;2755;50.728;7.108;2023-10-31T05:52:43;143.73;;;77.57;;
5465;SDS011;2755;50.728;7.108;2023-10-31T05:55:08;147.03;;;83.90;;
5465;SDS011;2755;50.728;7.108;2023-10-31T05:57:34;142.43;;;74.80;;
5465;SDS011;2755;50.728;7.108;2023-10-31T06:00:00;145.57;;;80.97;;
5465;SDS011;2755;50.728;7.108;2023-10-31T06:02:26;145.63;;;80.00;;
5465;SDS011;2755;50.728;7.108;2023-10-31T06:04:51;143.47;;;76.23;;
5465;SDS011;2755;50.728;7.108;2023-10-31T06:07:17;142.70;;;74.87;;
5465;SDS011;2755;50.728;7.108;2023-10-31T06:09:44;144.87;;;79.50;;
5465;SDS011;2755;50.728;7.108;2023-10-31T06:12:10;143.67;;;76.00;;
5465;SDS011;2755;50.728;7.108;2023-10-31T06:14:36;145.63;;;80.13;;
5465;SDS011;2755;50.728;7.108;2023-10-31T06:17:02;144.80;;;79.50;;
5465;SDS011;2755;50.728;7.108;2023-10-31T06:19:28;143.83;;;78.40;;
5465;SDS011;2755;50.728;7.108;2023-10-31T06:21:54;143.20;;;78.43;;
5465;SDS011;2755;50.728;7.108;2023-10-31T06:24:19;144.40;;;79.07;;
5465;SDS011;2755;50.728;7.108;2023-10-31T06:26:45;143.37;;;76.90;;
5465;SDS011;2755;50.728;7.108;2023-10-31T06:29:10;140.53;;;72.10;;
5465;SDS011;2755;50.728;7.108;2023-10-31T06:31:36;145.00;;;79.60;;
5465;SDS011;2755;50.728;7.108;2023-10-31T06:34:01;144.13;;;77.50;;
5465;SDS011;2755;50.728;7.108;2023-10-31T06:36:34;142.87;;;76.07;;
5465;SDS011;2755;50.728;7.108;2023-10-31T06:39:00;143.50;;;76.17;;
5465;SDS011;2755;50.728;7.108;2023-10-31T06:41:27;142.40;;;74.47;;
5465;SDS011;2755;50.728;7.108;2023-10-31T06:43:54;141.47;;;74.93;;
5465;SDS011;2755;50.728;7.108;2023-10-31T06:46:20;142.77;;;76.57;;
5465;SDS011;2755;50.728;7.108;2023-10-31T06:48:45;141.80;;;75.97;;
5465;SDS011;2755;50.728;7.108;2023-10-31T06:51:11;142.27;;;74.37;;
5465;SDS011;2755;50.728;7.108;2023-10-31T06:53:38;139.67;;;71.13;;
5465;SDS011;2755;50.728;7.108;2023-10-31T06:56:03;141.67;;;75.27;;
5465;SDS011;2755;50.728;7.108;2023-10-31T06:58:29;143.27;;;77.37;;
5465;SDS011;2755;50.728;7.108;2023-10-31T07:00:54;141.53;;;76.13;;
5465;SDS011;2755;50.728;7.108;2023-10-31T07:03:23;142.37;;;75.83;;
5465;SDS011;2755;50.728;7.108;2023-10-31T07:05:49;141.80;;;74.30;;
5465;SDS011;2755;50.728;7.108;2023-10-31T07:08:15;140.37;;;73.33;;
5465;SDS011;2755;50.728;7.108;2023-10-31T07:10:40;139.33;;;71.07;;
5465;SDS011;2755;50.728;7.108;2023-10-31T07:13:06;142.47;;;78.77;;
5465;SDS011;2755;50.728;7.108;2023-10-31T07:15:32;142.83;;;79.47;;
5465;SDS011;2755;50.728;7.108;2023-10-31T07:18:03;142.87;;;80.20;;
5465;SDS011;2755;50.728;7.108;2023-10-31T07:20:30;142.23;;;76.53;;
5465;SDS011;2755;50.728;7.108;2023-10-31T07:22:55;143.63;;;80.17;;
5465;SDS011;2755;50.728;7.108;2023-10-31T07:25:21;142.33;;;77.30;;
5465;SDS011;2755;50.728;7.108;2023-10-31T07:27:47;143.03;;;79.43;;
5465;SDS011;2755;50.728;7.108;2023-10-31T07:30:13;142.57;;;76.93;;
5465;SDS011;2755;50.728;7.108;2023-10-31T07:32:39;140.20;;;72.80;;
5465;SDS011;2755;50.728;7.108;2023-10-31T07:35:05;142.73;;;76.80;;
5465;SDS011;2755;50.728;7.108;2023-10-31T07:37:31;140.67;;;75.77;;
5465;SDS011;2755;50.728;7.108;2023-10-31T07:39:57;144.50;;;80.27;;
5465;SDS011;2755;50.728;7.108;2023-10-31T07:42:22;140.47;;;72.40;;
5465;SDS011;2755;50.728;7.108;2023-10-31T07:44:48;139.63;;;72.73;;
5465;SDS011;2755;50.728;7.108;2023-10-31T07:47:15;140.07;;;73.43;;
5465;SDS011;2755;50.728;7.108;2023-10-31T07:49:41;139.50;;;72.50;;
5465;SDS011;2755;50.728;7.108;2023-10-31T07:52:07;136.93;;;67.03;;
5465;SDS011;2755;50.728;7.108;2023-10-31T07:54:33;142.97;;;75.53;;
5465;SDS011;2755;50.728;7.108;2023-10-31T07:56:59;143.60;;;77.77;;
5465;SDS011;2755;50.728;7.108;2023-10-31T07:59:24;143.43;;;78.00;;
5465;SDS011;2755;50.728;7.108;2023-10-31T08:01:50;145.90;;;80.27;;
5465;SDS011;2755;50.728;7.108;2023-10-31T08:04:17;143.97;;;77.03;;
5465;SDS011;2755;50.728;7.108;2023-10-31T08:06:43;144.67;;;77.80;;
5465;SDS011;2755;50.728;7.108;2023-10-31T08:09:08;153.83;;;94.07;;
5465;SDS011;2755;50.728;7.108;2023-10-31T08:11:34;159.87;;;104.83;;
5465;SDS011;2755;50.728;7.108;2023-10-31T08:14:00;167.27;;;116.97;;
5465;SDS011;2755;50.728;7.108;2023-10-31T08:16:26;166.77;;;113.37;;
5465;SDS011;2755;50.728;7.108;2023-10-31T08:18:53;174.20;;;125.80;;
5465;SDS011;2755;50.728;7.108;2023-10-31T08:21:19;169.73;;;120.50;;
5465;SDS011;2755;50.728;7.108;2023-10-31T08:23:45;157.90;;;101.77;;
5465;SDS011;2755;50.728;7.108;2023-10-31T08:26:11;155.77;;;96.73;;
5465;SDS011;2755;50.728;7.108;2023-10-31T08:28:37;158.07;;;98.57;;
5465;SDS011;2755;50.728;7.108;2023-10-31T08:31:03;163.57;;;108.63;;
5465;SDS011;2755;50.728;7.108;2023-10-31T08:33:29;156.20;;;97.57;;
5465;SDS011;2755;50.728;7.108;2023-10-31T08:35:55;156.57;;;98.83;;
5465;SDS011;2755;50.728;7.108;2023-10-31T08:38:20;157.63;;;99.37;;
5465;SDS011;2755;50.728;7.108;2023-10-31T08:40:48;155.47;;;97.03;;
5465;SDS011;2755;50.728;7.108;2023-10-31T08:43:14;158.03;;;99.43;;
5465;SDS011;2755;50.728;7.108;2023-10-31T08:45:39;156.87;;;98.27;;
5465;SDS011;2755;50.728;7.108;2023-10-31T08:48:05;155.77;;;95.57;;
5465;SDS011;2755;50.728;7.108;2023-10-31T08:50:31;156.10;;;99.00;;
5465;SDS011;2755;50.728;7.108;2023-10-31T08:52:57;154.27;;;94.83;;
5465;SDS011;2755;50.728;7.108;2023-10-31T08:55:22;151.43;;;91.07;;
5465;SDS011;2755;50.728;7.108;2023-10-31T08:57:48;153.13;;;94.23;;
5465;SDS011;2755;50.728;7.108;2023-10-31T09:00:14;156.97;;;100.10;;
5465;SDS011;2755;50.728;7.108;2023-10-31T09:02:40;154.67;;;95.57;;
5465;SDS011;2755;50.728;7.108;2023-10-31T09:05:06;153.83;;;94.37;;
5465;SDS011;2755;50.728;7.108;2023-10-31T09:07:31;152.73;;;92.87;;
5465;SDS011;2755;50.728;7.108;2023-10-31T09:09:58;155.70;;;98.10;;
5465;SDS011;2755;50.728;7.108;2023-10-31T09:12:23;156.60;;;100.83;;
5465;SDS011;2755;50.728;7.108;2023-10-31T09:14:49;153.10;;;93.17;;
5465;SDS011;2755;50.728;7.108;2023-10-31T09:17:15;167.37;;;120.13;;
5465;SDS011;2755;50.728;7.108;2023-10-31T09:19:41;179.53;;;141.93;;
5465;SDS011;2755;50.728;7.108;2023-10-31T09:22:06;165.33;;;116.87;;
5465;SDS011;2755;50.728;7.108;2023-10-31T09:24:32;163.23;;;112.50;;
5465;SDS011;2755;50.728;7.108;2023-10-31T09:26:58;158.57;;;101.47;;
5465;SDS011;2755;50.728;7.108;2023-10-31T09:29:24;154.27;;;98.87;;
5465;SDS011;2755;50.728;7.108;2023-10-31T09:31:50;156.50;;;99.50;;
5465;SDS011;2755;50.728;7.108;2023-10-31T09:34:15;155.43;;;98.27;;
5465;SDS011;2755;50.728;7.108;2023-10-31T09:36:41;156.20;;;97.47;;
5465;SDS011;2755;50.728;7.108;2023-10-31T09:39:07;155.20;;;99.33;;
5465;SDS011;2755;50.728;7.108;2023-10-31T09:41:32;154.33;;;95.63;;
5465;SDS011;2755;50.728;7.108;2023-10-31T09:43:58;157.37;;;101.73;;
5465;SDS011;2755;50.728;7.108;2023-10-31T09:46:24;154.50;;;96.80;;
5465;SDS011;2755;50.728;7.108;2023-10-31T09:48:50;157.07;;;101.87;;
5465;SDS011;2755;50.728;7.108;2023-10-31T09:51:17;168.27;;;119.37;;
5465;SDS011;2755;50.728;7.108;2023-10-31T09:53:44;166.07;;;119.83;;
5465;SDS011;2755;50.728;7.108;2023-10-31T09:56:13;165.87;;;117.47;;
5465;SDS011;2755;50.728;7.108;2023-10-31T09:58:40;165.87;;;116.37;;
5465;SDS011;2755;50.728;7.108;2023-10-31T10:01:06;165.13;;;115.23;;
5465;SDS011;2755;50.728;7.108;2023-10-31T10:03:32;170.87;;;124.20;;
5465;SDS011;2755;50.728;7.108;2023-10-31T10:05:58;168.33;;;118.90;;
5465;SDS011;2755;50.728;7.108;2023-10-31T10:08:24;160.53;;;105.93;;
5465;SDS011;2755;50.728;7.108;2023-10-31T10:10:50;156.47;;;98.90;;
5465;SDS011;2755;50.728;7.108;2023-10-31T10:13:22;154.23;;;93.60;;
5465;SDS011;2755;50.728;7.108;2023-10-31T10:15:48;149.10;;;85.10;;
5465;SDS011;2755;50.728;7.108;2023-10-31T10:18:27;155.50;;;80.03;;
5465;SDS011;2755;50.728;7.108;2023-10-31T10:20:54;147.20;;;81.40;;
5465;SDS011;2755;50.728;7.108;2023-10-31T10:23:30;148.73;;;84.67;;
5465;SDS011;2755;50.728;7.108;2023-10-31T10:25:56;149.30;;;85.10;;
5465;SDS011;2755;50.728;7.108;2023-10-31T10:28:23;150.47;;;87.83;;
5465;SDS011;2755;50.728;7.108;2023-10-31T10:30:54;150.20;;;87.47;;
5465;SDS011;2755;50.728;7.108;2023-10-31T10:33:20;150.73;;;89.27;;
5465;SDS011;2755;50.728;7.108;2023-10-31T10:35:46;152.07;;;90.80;;
5465;SDS011;2755;50.728;7.108;2023-10-31T10:38:16;154.57;;;96.47;;
5465;SDS011;2755;50.728;7.108;2023-10-31T10:40:44;153.17;;;92.90;;
5465;SDS011;2755;50.728;7.108;2023-10-31T10:45:43;152.67;;;91.67;;
5465;SDS011;2755;50.728;7.108;2023-10-31T10:48:11;153.87;;;92.57;;
5465;SDS011;2755;50.728;7.108;2023-10-31T10:50:41;150.87;;;89.50;;
5465;SDS011;2755;50.728;7.108;2023-10-31T10:53:24;147.77;;;83.40;;
5465;SDS011;2755;50.728;7.108;2023-10-31T10:55:59;145.17;;;79.97;;
5465;SDS011;2755;50.728;7.108;2023-10-31T10:58:37;145.37;;;80.47;;
5465;SDS011;2755;50.728;7.108;2023-10-31T11:01:24;142.97;;;74.33;;
5465;SDS011;2755;50.728;7.108;2023-10-31T11:03:52;145.70;;;80.33;;
5465;SDS011;2755;50.728;7.108;2023-10-31T11:06:20;149.97;;;88.93;;
5465;SDS011;2755;50.728;7.108;2023-10-31T11:08:47;149.93;;;83.57;;
5465;SDS011;2755;50.728;7.108;2023-10-31T11:11:13;148.70;;;84.00;;
5465;SDS011;2755;50.728;7.108;2023-10-31T11:13:41;147.67;;;81.47;;
5465;SDS011;2755;50.728;7.108;2023-10-31T11:16:11;147.47;;;81.27;;
5465;SDS011;2755;50.728;7.108;2023-10-31T11:18:40;144.67;;;76.83;;
5465;SDS011;2755;50.728;7.108;2023-10-31T11:21:07;151.20;;;82.17;;
5465;SDS011;2755;50.728;7.108;2023-10-31T11:23:33;148.73;;;80.93;;
5465;SDS011;2755;50.728;7.108;2023-10-31T11:25:59;150.70;;;85.17;;
5465;SDS011;2755;50.728;7.108;2023-10-31T11:28:25;151.40;;;85.97;;
5465;SDS011;2755;50.728;7.108;2023-10-31T11:30:51;150.47;;;84.73;;
5465;SDS011;2755;50.728;7.108;2023-10-31T11:33:22;149.40;;;82.00;;
5465;SDS011;2755;50.728;7.108;2023-10-31T11:35:50;151.27;;;86.37;;
5465;SDS011;2755;50.728;7.108;2023-10-31T11:38:15;151.00;;;86.57;;
5465;SDS011;2755;50.728;7.108;2023-10-31T11:43:13;146.73;;;78.83;;
5465;SDS011;2755;50.728;7.108;2023-10-31T11:48:12;148.30;;;83.60;;
5465;SDS011;2755;50.728;7.108;2023-10-31T11:50:39;148.30;;;84.60;;
5465;SDS011;2755;50.728;7.108;2023-10-31T11:53:06;148.80;;;86.47;;
5465;SDS011;2755;50.728;7.108;2023-10-31T11:55:33;147.87;;;83.47;;
5465;SDS011;2755;50.728;7.108;2023-10-31T11:58:13;149.13;;;85.43;;
5465;SDS011;2755;50.728;7.108;2023-10-31T12:00:40;148.33;;;83.87;;
5465;SDS011;2755;50.728;7.108;2023-10-31T12:03:06;151.27;;;88.67;;
5465;SDS011;2755;50.728;7.108;2023-10-31T12:05:32;151.07;;;88.07;;
5465;SDS011;2755;50.728;7.108;2023-10-31T12:07:58;149.40;;;84.37;;
5465;SDS011;2755;50.728;7.108;2023-10-31T12:10:24;148.77;;;85.07;;
5465;SDS011;2755;50.728;7.108;2023-10-31T12:12:52;153.70;;;88.47;;
5465;SDS011;2755;50.728;7.108;2023-10-31T12:15:18;152.07;;;85.67;;
5465;SDS011;2755;50.728;7.108;2023-10-31T12:17:44;148.53;;;81.43;;
5465;SDS011;2755;50.728;7.108;2023-10-31T12:20:10;147.57;;;80.70;;
5465;SDS011;2755;50.728;7.108;2023-10-31T12:22:36;146.70;;;78.87;;
5465;SDS011;2755;50.728;7.108;2023-10-31T12:25:08;146.97;;;79.67;;
5465;SDS011;2755;50.728;7.108;2023-10-31T12:27:44;148.60;;;82.30;;
5465;SDS011;2755;50.728;7.108;2023-10-31T12:30:11;151.60;;;85.77;;
5465;SDS011;2755;50.728;7.108;2023-10-31T12:32:39;149.37;;;82.17;;
5465;SDS011;2755;50.728;7.108;2023-10-31T12:35:05;149.87;;;84.17;;
5465;SDS011;2755;50.728;7.108;2023-10-31T12:37:31;148.57;;;82.33;;
5465;SDS011;2755;50.728;7.108;2023-10-31T12:39:58;151.50;;;87.33;;
5465;SDS011;2755;50.728;7.108;2023-10-31T12:42:28;151.23;;;86.43;;
5465;SDS011;2755;50.728;7.108;2023-10-31T12:44:56;152.37;;;87.77;;
5465;SDS011;2755;50.728;7.108;2023-10-31T12:47:24;150.23;;;85.73;;
5465;SDS011;2755;50.728;7.108;2023-10-31T12:50:08;154.20;;;93.17;;
5465;SDS011;2755;50.728;7.108;2023-10-31T12:52:49;152.50;;;88.70;;
5465;SDS011;2755;50.728;7.108;2023-10-31T12:55:16;152.60;;;90.03;;
5465;SDS011;2755;50.728;7.108;2023-10-31T12:57:42;152.77;;;89.77;;
5465;SDS011;2755;50.728;7.108;2023-10-31T13:00:09;149.57;;;83.90;;
5465;SDS011;2755;50.728;7.108;2023-10-31T13:02:38;150.97;;;84.87;;
5465;SDS011;2755;50.728;7.108;2023-10-31T13:05:14;150.40;;;85.17;;
5465;SDS011;2755;50.728;7.108;2023-10-31T13:07:49;147.77;;;83.63;;
5465;SDS011;2755;50.728;7.108;2023-10-31T13:10:17;148.97;;;82.77;;
5465;SDS011;2755;50.728;7.108;2023-10-31T13:12:44;144.60;;;77.23;;
5465;SDS011;2755;50.728;7.108;2023-10-31T13:15:11;147.00;;;79.30;;
5465;SDS011;2755;50.728;7.108;2023-10-31T13:17:41;146.07;;;77.17;;
5465;SDS011;2755;50.728;7.108;2023-10-31T13:20:08;147.47;;;80.17;;
5465;SDS011;2755;50.728;7.108;2023-10-31T13:22:39;148.13;;;80.53;;
5465;SDS011;2755;50.728;7.108;2023-10-31T13:25:06;147.90;;;82.77;;
5465;SDS011;2755;50.728;7.108;2023-10-31T13:27:36;149.77;;;82.40;;
5465;SDS011;2755;50.728;7.108;2023-10-31T13:30:06;149.70;;;84.07;;
5465;SDS011;2755;50.728;7.108;2023-10-31T13:32:32;151.47;;;86.97;;
5465;SDS011;2755;50.728;7.108;2023-10-31T13:34:58;149.87;;;87.33;;
5465;SDS011;2755;50.728;7.108;2023-10-31T13:37:25;147.53;;;80.23;;
5465;SDS011;2755;50.728;7.108;2023-10-31T13:39:50;150.83;;;86.40;;
5465;SDS011;2755;50.728;7.108;2023-10-31T13:42:17;149.40;;;85.17;;
5465;SDS011;2755;50.728;7.108;2023-10-31T13:44:43;147.60;;;82.07;;
5465;SDS011;2755;50.728;7.108;2023-10-31T13:47:09;149.20;;;84.37;;
5465;SDS011;2755;50.728;7.108;2023-10-31T13:49:35;153.37;;;92.07;;
5465;SDS011;2755;50.728;7.108;2023-10-31T13:52:02;147.97;;;82.00;;
5465;SDS011;2755;50.728;7.108;2023-10-31T13:54:31;148.30;;;83.17;;
5465;SDS011;2755;50.728;7.108;2023-10-31T13:56:57;149.23;;;83.93;;
5465;SDS011;2755;50.728;7.108;2023-10-31T13:59:23;151.17;;;89.17;;
5465;SDS011;2755;50.728;7.108;2023-10-31T14:01:49;153.17;;;91.30;;
5465;SDS011;2755;50.728;7.108;2023-10-31T14:04:15;153.80;;;92.10;;
5465;SDS011;2755;50.728;7.108;2023-10-31T14:06:41;153.77;;;94.23;;
5465;SDS011;2755;50.728;7.108;2023-10-31T14:09:08;156.17;;;97.80;;
5465;SDS011;2755;50.728;7.108;2023-10-31T14:11:35;149.93;;;86.60;;
5465;SDS011;2755;50.728;7.108;2023-10-31T14:14:01;151.27;;;89.07;;
5465;SDS011;2755;50.728;7.108;2023-10-31T14:16:41;148.40;;;82.57;;
5465;SDS011;2755;50.728;7.108;2023-10-31T14:19:09;146.57;;;79.73;;
5465;SDS011;2755;50.728;7.108;2023-10-31T14:21:35;149.03;;;84.67;;
5465;SDS011;2755;50.728;7.108;2023-10-31T14:24:02;148.57;;;82.37;;
5465;SDS011;2755;50.728;7.108;2023-10-31T14:26:29;149.20;;;83.70;;
5465;SDS011;2755;50.728;7.108;2023-10-31T14:28:57;153.73;;;89.47;;
5465;SDS011;2755;50.728;7.108;2023-10-31T14:31:23;149.13;;;83.27;;
5465;SDS011;2755;50.728;7.108;2023-10-31T14:33:49;150.27;;;86.30;;
5465;SDS011;2755;50.728;7.108;2023-10-31T14:36:15;149.00;;;83.47;;
5465;SDS011;2755;50.728;7.108;2023-10-31T14:38:41;149.03;;;84.23;;